Time,TemperatureF,DewpointF,PressureIn,WindDirection,WindDirectionDegrees,WindSpeedMPH,WindSpeedGustMPH,Humidity,HourlyPrecipIn,Conditions,Clouds,dailyrainin,SoftwareType,DateUTC
2013-08-03 00:15:00,55.2,53.2,30.15,West,277,0.0,0.0,93,0.00,CLR,SCT,0.00,WeatherDisplay:10.37,2013-08-03 07:15:00,
2013-08-03 00:30:00,54.9,53.2,30.14,West,277,0.0,0.0,94,0.00,CLR,SCT,0.00,WeatherDisplay:10.37,2013-08-03 07:30:00,
2013-08-03 00:45:00,54.6,52.9,30.14,West,277,0.0,0.0,94,0.00,CLR,SCT,0.00,WeatherDisplay:10.37,2013-08-03 07:45:00,
2013-08-03 01:00:00,54.2,52.5,30.14,West,277,0.0,0.0,94,0.00,CLR,SCT,0.00,WeatherDisplay:10.37,2013-08-03 08:00:00,
2013-08-03 01:15:00,53.8,52.1,30.14,West,277,0.0,0.0,94,0.00,CLR,SCT,0.00,WeatherDisplay:10.37,2013-08-03 08:15:00,
2013-08-03 01:30:00,53.5,51.8,30.14,West,277,0.0,0.0,94,0.00,CLR,SCT,0.00,WeatherDisplay:10.37,2013-08-03 08:30:00,
2013-08-03 01:45:00,53.1,51.4,30.13,West,277,0.0,0.0,94,0.00,CLR,SCT,0.00,WeatherDisplay:10.37,2013-08-03 08:45:00,
2013-08-03 01:59:00,52.9,51.5,30.13,West,277,0.0,0.0,95,0.00,CLR,SCT,0.00,WeatherDisplay:10.37,2013-08-03 08:59:00,
2013-08-03 02:15:00,52.7,51.3,30.13,West,277,0.0,0.0,95,0.00,CLR,SCT,0.00,WeatherDisplay:10.37,2013-08-03 09:15:00,
2013-08-03 02:30:00,52.5,51.1,30.13,West,277,0.0,0.0,95,0.00,CLR,SCT,0.00,WeatherDisplay:10.37,2013-08-03 09:30:00,
2013-08-03 02:45:00,52.5,51.1,30.13,West,277,0.0,0.0,95,0.00,CLR,SCT,0.00,WeatherDisplay:10.37,2013-08-03 09:45:00,
2013-08-03 03:00:00,52.5,51.4,30.13,West,277,0.0,0.0,96,0.00,CLR,SCT,0.00,WeatherDisplay:10.37,2013-08-03 10:00:00,
2013-08-03 03:15:00,52.2,50.8,30.14,West,277,0.0,0.0,95,0.00,CLR,SCT,0.00,WeatherDisplay:10.37,2013-08-03 10:15:00,
2013-08-03 03:30:00,52.6,51.5,30.14,West,277,0.0,0.0,96,0.00,CLR,SCT,0.00,WeatherDisplay:10.37,2013-08-03 10:30:00,
2013-08-03 03:45:00,52.8,51.7,30.14,West,277,0.0,0.0,96,0.00,CLR,SCT,0.00,WeatherDisplay:10.37,2013-08-03 10:45:00,
2013-08-03 04:00:00,52.8,51.7,30.14,West,277,0.0,0.0,96,0.00,CLR,SCT,0.00,WeatherDisplay:10.37,2013-08-03 11:00:00,
2013-08-03 04:14:00,52.7,51.6,30.13,West,277,0.0,0.0,96,0.00,CLR,SCT,0.00,WeatherDisplay:10.37,2013-08-03 11:14:00,
2013-08-03 04:30:00,52.9,51.8,30.13,West,277,0.0,0.0,96,0.00,CLR,SCT,0.00,WeatherDisplay:10.37,2013-08-03 11:30:00,
2013-08-03 04:45:00,53.1,52.0,30.13,West,277,0.0,0.0,96,0.00,CLR,SCT,0.00,WeatherDisplay:10.37,2013-08-03 11:45:00,
2013-08-03 05:00:00,53.4,52.3,30.13,West,277,0.0,0.0,96,0.00,CLR,SCT,0.00,WeatherDisplay:10.37,2013-08-03 12:00:00,
2013-08-03 05:14:00,53.5,52.4,30.13,West,277,0.0,0.0,96,0.00,CLR,SCT,0.00,WeatherDisplay:10.37,2013-08-03 12:14:00,
2013-08-03 05:30:00,53.7,52.9,30.13,West,277,0.0,0.0,97,0.00,CLR,SCT,0.00,WeatherDisplay:10.37,2013-08-03 12:30:00,
2013-08-03 05:45:00,53.8,53.0,30.13,West,277,0.0,0.0,97,0.00,CLR,SCT,0.00,WeatherDisplay:10.37,2013-08-03 12:45:00,
2013-08-03 05:59:00,53.8,53.0,30.14,West,277,0.0,0.0,97,0.00,CLR,SCT,0.00,WeatherDisplay:10.37,2013-08-03 12:59:00,
2013-08-03 06:15:00,53.9,53.1,30.14,West,277,0.0,0.0,97,0.00,CLR,SCT,0.00,WeatherDisplay:10.37,2013-08-03 13:15:00,
2013-08-03 06:30:00,54.0,53.2,30.14,West,277,0.0,0.0,97,0.00,CLR,SCT,0.00,WeatherDisplay:10.37,2013-08-03 13:30:00,
2013-08-03 06:45:00,54.2,53.4,30.14,West,277,0.0,0.0,97,0.00,CLR,SCT,0.00,WeatherDisplay:10.37,2013-08-03 13:45:00,
2013-08-03 07:00:00,54.4,53.6,30.14,West,277,0.0,0.0,97,0.00,CLR,SCT,0.00,WeatherDisplay:10.37,2013-08-03 14:00:00,
2013-08-03 07:15:00,54.6,53.8,30.14,West,277,0.0,0.0,97,0.00,CLR,SCT,0.00,WeatherDisplay:10.37,2013-08-03 14:15:00,
2013-08-03 07:30:00,54.8,54.0,30.14,West,277,0.0,0.0,97,0.00,CLR,SCT,0.00,WeatherDisplay:10.37,2013-08-03 14:30:00,
2013-08-03 07:45:00,54.9,54.1,30.14,West,277,0.0,0.0,97,0.00,CLR,SCT,0.00,WeatherDisplay:10.37,2013-08-03 14:45:00,
2013-08-03 08:00:00,55.1,54.3,30.15,West,277,0.0,0.0,97,0.00,CLR,SCT,0.00,WeatherDisplay:10.37,2013-08-03 15:00:00,
2013-08-03 08:15:00,55.3,54.5,30.15,West,277,0.0,0.0,97,0.00,CLR,SCT,0.00,WeatherDisplay:10.37,2013-08-03 15:15:00,
2013-08-03 08:30:00,55.4,54.6,30.15,West,277,0.0,0.0,97,0.00,CLR,SCT,0.00,WeatherDisplay:10.37,2013-08-03 15:30:00,
2013-08-03 08:45:00,55.9,55.1,30.15,West,277,0.0,0.0,97,0.00,CLR,SCT,0.00,WeatherDisplay:10.37,2013-08-03 15:45:00,
2013-08-03 09:00:00,56.4,55.5,30.15,West,277,0.0,0.0,97,0.00,CLR,SCT,0.00,WeatherDisplay:10.37,2013-08-03 16:00:00,
2013-08-03 09:15:00,56.8,56.0,30.15,West,277,0.0,0.0,97,0.00,CLR,SCT,0.00,WeatherDisplay:10.37,2013-08-03 16:15:00,
2013-08-03 09:30:00,57.2,56.4,30.14,West,277,0.0,0.0,97,0.00,CLR,SCT,0.00,WeatherDisplay:10.37,2013-08-03 16:30:00,
2013-08-03 09:45:00,58.0,57.1,30.14,West,276,0.0,0.0,97,0.00,CLR,SCT,0.00,WeatherDisplay:10.37,2013-08-03 16:45:00,
2013-08-03 10:00:00,59.1,58.0,30.14,North,355,0.0,0.0,96,0.00,CLR,SCT,0.00,WeatherDisplay:10.37,2013-08-03 17:00:00,
2013-08-03 10:15:00,60.1,58.3,30.14,North,355,0.0,0.0,94,0.00,CLR,SCT,0.00,WeatherDisplay:10.37,2013-08-03 17:15:00,
2013-08-03 10:29:00,61.4,58.2,30.14,North,355,0.0,0.0,89,0.00,CLR,SCT,0.00,WeatherDisplay:10.37,2013-08-03 17:29:00,
2013-08-03 10:44:00,63.2,58.9,30.13,North,359,0.0,0.0,86,0.00,CLR,SCT,0.00,WeatherDisplay:10.37,2013-08-03 17:44:00,
2013-08-03 11:00:00,64.9,60.3,30.13,WNW,285,0.0,1.0,85,0.00,CLR,SCT,0.00,WeatherDisplay:10.37,2013-08-03 18:00:00,
2013-08-03 11:15:00,66.2,60.2,30.13,West,273,0.0,4.0,81,0.00,CLR,SCT,0.00,WeatherDisplay:10.37,2013-08-03 18:15:00,
2013-08-03 11:30:00,67.0,60.3,30.12,WNW,300,1.0,3.0,79,0.00,CLR,SCT,0.00,WeatherDisplay:10.37,2013-08-03 18:30:00,
2013-08-03 11:45:00,68.1,61.0,30.12,NW,324,0.0,3.0,78,0.00,CLR,SCT,0.00,WeatherDisplay:10.37,2013-08-03 18:45:00,
2013-08-03 12:00:00,68.7,60.5,30.12,WSW,251,2.0,4.0,75,0.00,CLR,SCT,0.00,WeatherDisplay:10.37,2013-08-03 19:00:00,
2013-08-03 12:15:00,69.8,60.8,30.12,NNW,347,0.0,3.0,73,0.00,CLR,SCT,0.00,WeatherDisplay:10.37,2013-08-03 19:15:00,
2013-08-03 12:30:00,70.8,60.5,30.11,NE,35,1.0,4.0,70,0.00,CLR,SCT,0.00,WeatherDisplay:10.37,2013-08-03 19:30:00,
2013-08-03 12:45:00,72.0,60.8,30.10,West,268,0.0,3.0,68,0.00,CLR,SCT,0.00,WeatherDisplay:10.37,2013-08-03 19:45:00,
2013-08-03 12:59:00,72.9,61.3,30.10,WSW,254,1.0,4.0,67,0.00,CLR,SCT,0.00,WeatherDisplay:10.37,2013-08-03 19:59:00,
2013-08-03 13:15:00,73.0,62.3,30.09,West,274,0.0,5.0,69,0.00,CLR,SCT,0.00,WeatherDisplay:10.37,2013-08-03 20:15:00,
2013-08-03 13:30:00,73.6,62.4,30.09,West,280,2.0,6.0,68,0.00,CLR,SCT,0.00,WeatherDisplay:10.37,2013-08-03 20:30:00,
2013-08-03 13:44:00,73.7,62.5,30.09,West,271,2.0,10.0,68,0.00,CLR,SCT,0.00,WeatherDisplay:10.37,2013-08-03 20:44:00,
2013-08-03 14:14:00,73.7,62.0,30.09,NW,305,0.0,10.0,67,0.00,CLR,SCT,0.00,WeatherDisplay:10.37,2013-08-03 21:14:00,
2013-08-03 14:44:00,73.4,61.4,30.08,West,269,0.0,9.0,66,0.00,CLR,SCT,0.00,WeatherDisplay:10.37,2013-08-03 21:44:00,
2013-08-03 15:00:00,73.9,61.9,30.08,West,266,0.0,8.0,66,0.00,CLR,SCT,0.00,WeatherDisplay:10.37,2013-08-03 22:00:00,
2013-08-03 15:15:00,74.4,61.4,30.08,West,280,2.0,6.0,64,0.00,CLR,SCT,0.00,WeatherDisplay:10.37,2013-08-03 22:15:00,
2013-08-03 15:29:00,73.3,61.3,30.08,West,274,2.0,9.0,66,0.00,CLR,SCT,0.00,WeatherDisplay:10.37,2013-08-03 22:29:00,
2013-08-03 15:45:00,73.2,60.7,30.08,West,261,2.0,10.0,65,0.00,CLR,SCT,0.00,WeatherDisplay:10.37,2013-08-03 22:45:00,
2013-08-03 15:59:00,73.5,61.0,30.07,NW,313,1.0,6.0,65,0.00,CLR,SCT,0.00,WeatherDisplay:10.37,2013-08-03 22:59:00,
2013-08-03 16:15:00,73.9,60.5,30.07,WNW,300,1.0,6.0,63,0.00,CLR,SCT,0.00,WeatherDisplay:10.37,2013-08-03 23:15:00,
2013-08-03 16:30:00,73.5,61.0,30.06,NNW,327,1.0,6.0,65,0.00,CLR,SCT,0.00,WeatherDisplay:10.37,2013-08-03 23:30:00,
2013-08-03 16:44:00,74.3,61.3,30.06,WNW,290,2.0,7.0,64,0.00,CLR,SCT,0.00,WeatherDisplay:10.37,2013-08-03 23:44:00,
2013-08-03 16:59:00,75.1,61.6,30.06,West,266,0.0,5.0,63,0.00,CLR,SCT,0.00,WeatherDisplay:10.37,2013-08-03 23:59:00,
2013-08-03 17:15:00,73.2,60.3,30.05,West,265,2.0,6.0,64,0.00,CLR,SCT,0.00,WeatherDisplay:10.37,2013-08-04 00:15:00,
2013-08-03 17:30:00,70.9,59.8,30.05,West,274,7.0,10.0,68,0.00,CLR,SCT,0.00,WeatherDisplay:10.37,2013-08-04 00:30:00,
2013-08-03 17:44:00,69.8,59.6,30.05,West,260,1.0,9.0,70,0.00,CLR,SCT,0.00,WeatherDisplay:10.37,2013-08-04 00:44:00,
2013-08-03 18:00:00,70.1,59.4,30.05,WSW,256,2.0,9.0,69,0.00,CLR,SCT,0.00,WeatherDisplay:10.37,2013-08-04 01:00:00,
2013-08-03 18:15:00,71.3,59.8,30.05,West,267,0.0,5.0,67,0.00,CLR,SCT,0.00,WeatherDisplay:10.37,2013-08-04 01:15:00,
2013-08-03 18:29:00,71.6,59.6,30.05,NW,311,0.0,3.0,66,0.00,CLR,SCT,0.00,WeatherDisplay:10.37,2013-08-04 01:29:00,
2013-08-03 18:45:00,71.2,59.7,30.04,WNW,290,0.0,3.0,67,0.00,CLR,SCT,0.00,WeatherDisplay:10.37,2013-08-04 01:45:00,
2013-08-03 19:00:00,70.2,59.1,30.04,NNE,18,0.0,3.0,68,0.00,CLR,SCT,0.00,WeatherDisplay:10.37,2013-08-04 02:00:00,
2013-08-03 19:14:00,69.9,59.3,30.05,WNW,294,0.0,3.0,69,0.00,CLR,SCT,0.00,WeatherDisplay:10.37,2013-08-04 02:14:00,
2013-08-03 19:30:00,69.2,59.0,30.04,West,272,0.0,3.0,70,0.00,CLR,SCT,0.00,WeatherDisplay:10.37,2013-08-04 02:30:00,
2013-08-03 19:45:00,67.8,58.4,30.04,West,280,1.0,4.0,72,0.00,CLR,SCT,0.00,WeatherDisplay:10.37,2013-08-04 02:45:00,
2013-08-03 20:00:00,67.6,57.9,30.04,WNW,284,0.0,2.0,71,0.00,CLR,SCT,0.00,WeatherDisplay:10.37,2013-08-04 03:00:00,
2013-08-03 20:15:00,66.2,57.2,30.04,WNW,283,0.0,2.0,73,0.00,CLR,SCT,0.00,WeatherDisplay:10.37,2013-08-04 03:15:00,
2013-08-03 20:30:00,64.4,57.1,30.05,WNW,282,0.0,1.0,77,0.00,CLR,SCT,0.00,WeatherDisplay:10.37,2013-08-04 03:30:00,
2013-08-03 20:45:00,63.3,57.0,30.05,WNW,282,0.0,1.0,80,0.00,CLR,SCT,0.00,WeatherDisplay:10.37,2013-08-04 03:45:00,
2013-08-03 21:00:00,62.4,56.8,30.05,WNW,282,0.0,0.0,82,0.00,CLR,SCT,0.00,WeatherDisplay:10.37,2013-08-04 04:00:00,
2013-08-03 21:15:00,61.3,56.4,30.06,WNW,283,0.0,1.0,84,0.00,CLR,SCT,0.00,WeatherDisplay:10.37,2013-08-04 04:15:00,
2013-08-03 21:30:00,60.6,56.1,30.06,WNW,283,0.0,0.0,85,0.00,CLR,SCT,0.00,WeatherDisplay:10.37,2013-08-04 04:30:00,
2013-08-03 21:45:00,60.1,55.9,30.06,WNW,283,0.0,0.0,86,0.00,CLR,SCT,0.00,WeatherDisplay:10.37,2013-08-04 04:45:00,
2013-08-03 22:00:00,59.6,55.7,30.07,WNW,283,0.0,0.0,87,0.00,CLR,SCT,0.00,WeatherDisplay:10.37,2013-08-04 05:00:00,
2013-08-03 22:15:00,59.2,55.6,30.07,WNW,283,0.0,0.0,88,0.00,CLR,SCT,0.00,WeatherDisplay:10.37,2013-08-04 05:15:00,
2013-08-03 22:30:00,58.7,55.5,30.07,WNW,283,0.0,0.0,89,0.00,CLR,SCT,0.00,WeatherDisplay:10.37,2013-08-04 05:30:00,
2013-08-03 22:45:00,58.2,55.3,30.07,WNW,283,0.0,0.0,90,0.00,CLR,SCT,0.00,WeatherDisplay:10.37,2013-08-04 05:45:00,
2013-08-03 23:00:00,57.9,55.3,30.07,WNW,283,0.0,0.0,91,0.00,CLR,SCT,0.00,WeatherDisplay:10.37,2013-08-04 06:00:00,
2013-08-03 23:14:00,57.6,55.0,30.07,WNW,283,0.0,0.0,91,0.00,CLR,SCT,0.00,WeatherDisplay:10.37,2013-08-04 06:14:00,
2013-08-03 23:29:00,57.4,55.1,30.07,WNW,283,0.0,0.0,92,0.00,CLR,SCT,0.00,WeatherDisplay:10.37,2013-08-04 06:29:00,
2013-08-03 23:45:00,57.2,54.9,30.06,WNW,283,0.0,0.0,92,0.00,CLR,SCT,0.00,WeatherDisplay:10.37,2013-08-04 06:45:00,